KFNL/FNL METAR and TAF weather

Enter ICAO airport designator
Station Type Date Time Source
KFNL METAR 2021/08/04 17:56 UTC NOAA

KFNL 041756Z VRB06KT 10SM CLR 25/13 A3026 RMK AO2 SLP189 T02500133 10250 20167 58004


Station Type Date Time Source
KFNL Decoded METAR 2021/08/04 17:56 UTC NOAA

Fort Collins/Loveland, Fort Collins-Loveland Municipal Airport, CO, United States (KFNL) 40-27N 105-01W
Aug 04, 2021 - 01:56 PM EDT / 2021.08.04 1756 UTC
Wind: Variable at 7 MPH (6 KT):0
Visibility: 10 mile(s):0
Sky conditions: clear
Temperature: 77.0 F (25.0 C)
Dew Point: 55.9 F (13.3 C)
Relative Humidity: 48%
Pressure (altimeter): 30.26 in. Hg (1024 hPa)
Pressure tendency: 0.01 inches (0.4 hPa) lower than three hours ago
ob: KFNL 041756Z VRB06KT 10SM CLR 25/13 A3026 RMK AO2 SLP189 T02500133 10250 20167 58004
cycle: 18

Station Type Date Time Source
KFNL TAF UTC NOAA

Error!

Example: see airport list